Time;durP1;ratioP1;P1;durP2;ratioP2;P2;SDS_P1;SDS_P2;PMS_P1;PMS_P2;Temp;Humidity;BMP_temperature;BMP_pressure;BME280_temperature;BME280_humidity;BME280_pressure;Samples;Min_cycle;Max_cycle;Signal;HPM_P1;HPM_P2
2024/04/25 00:00:51;;;;;;;;;23.33;23.33;;;;;7.51;100.00;100795.09;5155485;27;44853;-81
2024/04/25 00:03:16;;;;;;;;;16.67;14.33;;;;;7.56;100.00;100803.41;5155697;27;43832;-80
2024/04/25 00:05:41;;;;;;;;;22.67;17.67;;;;;7.55;100.00;100802.56;5154182;27;43840;-80
2024/04/25 00:08:07;;;;;;;;;18.00;17.00;;;;;7.60;100.00;100791.53;5155435;27;44039;-79
2024/04/25 00:10:33;;;;;;;;;18.67;15.33;;;;;7.61;100.00;100790.56;5155644;27;43934;-81
2024/04/25 00:12:58;;;;;;;;;18.00;16.33;;;;;7.62;100.00;100786.91;5153786;27;43882;-80
2024/04/25 00:15:23;;;;;;;;;19.67;18.00;;;;;7.69;100.00;100781.81;5153750;27;43852;-80
2024/04/25 00:17:49;;;;;;;;;21.33;19.67;;;;;7.67;100.00;100779.34;5155734;27;44005;-80
2024/04/25 00:20:14;;;;;;;;;20.33;17.67;;;;;7.72;100.00;100780.72;5155737;27;44297;-80
2024/04/25 00:22:39;;;;;;;;;17.33;17.33;;;;;7.73;100.00;100769.13;5153538;27;44123;-80
2024/04/25 00:25:05;;;;;;;;;12.67;12.67;;;;;7.70;100.00;100767.63;5155570;27;44007;-80
2024/04/25 00:27:30;;;;;;;;;13.00;12.00;;;;;7.72;100.00;100768.28;5153669;27;44870;-80
2024/04/25 00:29:57;;;;;;;;;16.00;15.00;;;;;7.78;100.00;100772.16;5153643;27;45586;-80
2024/04/25 00:32:22;;;;;;;;;16.33;15.67;;;;;7.79;100.00;100760.59;5153759;27;43925;-80
2024/04/25 00:34:47;;;;;;;;;15.67;15.67;;;;;7.79;100.00;100755.28;5153895;27;43911;-80
2024/04/25 00:37:13;;;;;;;;;14.67;12.67;;;;;7.84;100.00;100758.28;5153505;27;48286;-80
2024/04/25 00:39:38;;;;;;;;;20.00;17.33;;;;;7.79;100.00;100742.06;5154858;27;44850;-80
2024/04/25 00:42:03;;;;;;;;;17.00;15.67;;;;;7.75;100.00;100746.81;5154979;27;44604;-80
2024/04/25 00:44:29;;;;;;;;;15.00;14.00;;;;;7.83;100.00;100753.97;5155586;27;43916;-80
2024/04/25 00:46:56;;;;;;;;;19.33;16.00;;;;;7.87;100.00;100751.88;5155003;27;43970;-81
2024/04/25 00:49:22;;;;;;;;;11.33;11.33;;;;;7.84;100.00;100745.06;5153451;27;46115;-81
2024/04/25 00:51:50;;;;;;;;;16.00;14.33;;;;;7.83;100.00;100736.31;5155550;27;43784;-80
2024/04/25 00:54:16;;;;;;;;;18.33;17.00;;;;;7.83;100.00;100728.38;5154636;27;43828;-80
2024/04/25 00:56:42;;;;;;;;;18.33;16.00;;;;;7.86;100.00;100731.66;5154859;27;43925;-80
2024/04/25 00:59:11;;;;;;;;;18.00;18.00;;;;;7.80;100.00;100723.38;5180644;27;46100;-80
2024/04/25 01:01:40;;;;;;;;;18.67;16.33;;;;;7.83;100.00;100719.59;5154719;27;43884;-80
2024/04/25 01:04:06;;;;;;;;;24.67;20.67;;;;;7.89;100.00;100731.34;5153248;27;43904;-81
2024/04/25 01:06:33;;;;;;;;;18.33;18.33;;;;;7.87;100.00;100722.75;5155065;27;43918;-82
2024/04/25 01:08:59;;;;;;;;;20.33;18.67;;;;;7.83;100.00;100722.22;5152996;27;45781;-81
2024/04/25 01:11:27;;;;;;;;;20.33;19.00;;;;;7.80;100.00;100711.97;5154789;27;43734;-80
2024/04/25 01:13:54;;;;;;;;;24.00;23.00;;;;;7.86;100.00;100718.44;5153235;27;43698;-80
2024/04/25 01:16:19;;;;;;;;;16.00;12.33;;;;;7.82;100.00;100718.75;5154545;27;43911;-80
2024/04/25 01:18:44;;;;;;;;;19.33;18.00;;;;;7.86;100.00;100716.63;5154154;27;45422;-80
2024/04/25 01:21:10;;;;;;;;;23.00;21.33;;;;;7.84;100.00;100710.66;5154498;27;43805;-80
2024/04/25 01:23:38;;;;;;;;;20.67;19.33;;;;;7.83;100.00;100711.66;5152665;27;44084;-80
2024/04/25 01:26:09;;;;;;;;;21.67;18.33;;;;;7.82;100.00;100707.34;5154649;27;43896;-80
2024/04/25 01:28:36;;;;;;;;;16.00;16.00;;;;;7.79;100.00;100703.22;5152595;27;46802;-80
2024/04/25 01:31:03;;;;;;;;;18.67;18.33;;;;;7.79;100.00;100699.72;5180199;27;44524;-80
2024/04/25 01:33:31;;;;;;;;;19.67;16.00;;;;;7.78;100.00;100698.06;5180142;27;43919;-81
2024/04/25 01:35:56;;;;;;;;;21.67;18.00;;;;;7.76;100.00;100698.22;5179564;27;44055;-80
2024/04/25 01:38:22;;;;;;;;;22.00;19.67;;;;;7.68;100.00;100684.94;5153815;27;44816;-79
2024/04/25 01:40:47;;;;;;;;;21.00;15.33;;;;;7.73;100.00;100692.41;5154547;27;43650;-80
2024/04/25 01:43:13;;;;;;;;;18.67;17.33;;;;;7.72;100.00;100688.91;5154411;27;43860;-80
2024/04/25 01:45:38;;;;;;;;;17.33;16.00;;;;;7.75;100.00;100693.91;5152142;27;45942;-80
2024/04/25 01:48:04;;;;;;;;;25.00;21.00;;;;;7.68;100.00;100677.84;5154012;27;53996;-80
2024/04/25 01:50:29;;;;;;;;;16.00;15.67;;;;;7.73;100.00;100687.13;5154172;27;43951;-81
2024/04/25 01:52:54;;;;;;;;;18.00;18.00;;;;;7.75;100.00;100687.81;5154122;27;43804;-80
2024/04/25 01:55:23;;;;;;;;;21.00;21.00;;;;;7.68;100.00;100663.78;5153825;27;45997;-80
2024/04/25 01:57:49;;;;;;;;;0.00;0.00;;;;;7.72;100.00;100674.88;5154435;27;43987;-80
2024/04/25 02:00:14;;;;;;;;;21.33;15.33;;;;;7.74;100.00;100678.19;5152098;27;43845;-80
2024/04/25 02:02:40;;;;;;;;;18.33;17.00;;;;;7.76;100.00;100676.22;5153987;27;43634;-80
2024/04/25 02:05:05;;;;;;;;;18.33;16.67;;;;;7.68;100.00;100669.91;5151783;27;54654;-80
2024/04/25 02:07:32;;;;;;;;;28.00;18.33;;;;;7.69;100.00;100668.91;5153640;27;45903;-79
2024/04/25 02:09:58;;;;;;;;;18.33;17.00;;;;;7.64;100.00;100660.63;5156814;27;43757;-80
2024/04/25 02:12:23;;;;;;;;;18.33;17.33;;;;;7.70;100.00;100672.38;5156789;27;44420;-80
2024/04/25 02:14:49;;;;;;;;;15.33;14.33;;;;;7.69;100.00;100666.25;5154227;27;50817;-80
2024/04/25 02:17:14;;;;;;;;;13.33;13.33;;;;;7.67;100.00;100665.56;5156842;27;43944;-80
2024/04/25 02:19:40;;;;;;;;;14.67;13.67;;;;;7.70;100.00;100665.25;5154837;27;44283;-81
2024/04/25 02:27:47;;;;;;;;;15.33;15.33;;;;;7.65;100.00;100654.34;5154268;27;44903;-81
2024/04/25 02:30:12;;;;;;;;;11.33;11.33;;;;;7.64;100.00;100650.03;5156448;27;44029;-80
2024/04/25 02:32:41;;;;;;;;;14.00;14.00;;;;;7.68;100.00;100651.38;5156723;27;43807;-80
2024/04/25 02:35:07;;;;;;;;;12.00;12.00;;;;;7.69;100.00;100654.84;5154877;27;44925;-80
2024/04/25 02:37:32;;;;;;;;;14.00;13.33;;;;;7.65;100.00;100645.56;5156357;27;45052;-80
2024/04/25 02:39:57;;;;;;;;;12.00;12.00;;;;;7.67;100.00;100644.41;5156180;27;43913;-80
2024/04/25 02:42:23;;;;;;;;;18.00;15.00;;;;;7.58;100.00;100630.31;5155035;27;44232;-80
2024/04/25 02:44:48;;;;;;;;;21.33;19.33;;;;;7.64;100.00;100636.81;5154441;27;46056;-80
2024/04/25 02:47:13;;;;;;;;;17.67;16.00;;;;;7.60;100.00;100630.16;5156419;27;44191;-80
2024/04/25 02:49:38;;;;;;;;;18.00;16.00;;;;;7.52;100.00;100628.31;5154623;27;47373;-80
2024/04/25 02:52:04;;;;;;;;;18.33;18.00;;;;;7.53;100.00;100629.13;5181760;27;48727;-80
2024/04/25 02:54:29;;;;;;;;;18.67;15.00;;;;;7.46;100.00;100626.31;5181870;27;44553;-80
2024/04/25 02:56:55;;;;;;;;;19.33;18.67;;;;;7.46;100.00;100623.66;5154111;27;54840;-80
2024/04/25 02:59:20;;;;;;;;;20.33;19.67;;;;;7.46;100.00;100628.94;5156199;27;43929;-80
2024/04/25 03:01:45;;;;;;;;;18.00;16.33;;;;;7.48;100.00;100626.16;5156361;27;43904;-80
2024/04/25 03:04:10;;;;;;;;;19.00;19.00;;;;;7.43;100.00;100611.56;5155937;27;51622;-80
2024/04/25 03:06:36;;;;;;;;;15.00;14.33;;;;;7.39;100.00;100609.41;5181799;27;47340;-80
2024/04/25 03:09:01;;;;;;;;;14.00;14.00;;;;;7.44;100.00;100607.09;5181458;27;51476;-81
2024/04/25 03:11:27;;;;;;;;;17.33;13.67;;;;;7.48;100.00;100615.56;5156368;27;43792;-80
2024/04/25 03:13:52;;;;;;;;;12.33;12.33;;;;;7.47;100.00;100613.88;5156071;27;43949;-80
2024/04/25 03:16:17;;;;;;;;;14.33;13.33;;;;;7.40;100.00;100611.91;5155816;27;50656;-80
2024/04/25 03:18:42;;;;;;;;;13.33;13.33;;;;;7.43;100.00;100608.09;5154286;27;43970;-80
2024/04/25 03:21:08;;;;;;;;;8.67;6.33;;;;;7.40;100.00;100611.91;5182027;27;43780;-80
2024/04/25 03:23:35;;;;;;;;;14.00;12.00;;;;;7.32;100.00;100596.81;5155814;27;44126;-80
2024/04/25 03:26:04;;;;;;;;;13.00;13.00;;;;;7.37;100.00;100612.22;5156134;27;45147;-80
2024/04/25 03:28:31;;;;;;;;;12.67;12.67;;;;;7.29;100.00;100599.75;5154195;27;43980;-81
2024/04/25 03:30:56;;;;;;;;;16.00;14.67;;;;;7.28;100.00;100595.44;5181712;27;43760;-80
2024/04/25 03:33:22;;;;;;;;;14.00;14.00;;;;;7.24;100.00;100588.00;5155867;27;43891;-80
2024/04/25 03:35:48;;;;;;;;;10.33;10.00;;;;;7.27;100.00;100592.97;5181611;27;45860;-80
2024/04/25 03:38:13;;;;;;;;;13.33;12.33;;;;;7.27;100.00;100596.44;5181224;27;44625;-80
2024/04/25 03:40:38;;;;;;;;;14.00;13.67;;;;;7.28;100.00;100589.34;5156398;27;43777;-80
2024/04/25 03:43:05;;;;;;;;;18.00;15.67;;;;;7.27;100.00;100591.16;5154161;27;44798;-80
2024/04/25 03:45:31;;;;;;;;;17.33;17.00;;;;;7.22;100.00;100588.16;5153606;27;46951;-80
2024/04/25 03:47:56;;;;;;;;;18.00;15.67;;;;;7.22;100.00;100587.31;5154197;27;43841;-80
2024/04/25 03:50:22;;;;;;;;;17.67;10.00;;;;;7.20;100.00;100580.38;5154317;27;43944;-80
2024/04/25 03:52:48;;;;;;;;;11.67;11.67;;;;;7.17;100.00;100577.19;5153938;27;44782;-80
2024/04/25 03:55:13;;;;;;;;;8.33;6.33;;;;;7.14;100.00;100577.50;5155682;27;43932;-81
2024/04/25 03:57:38;;;;;;;;;11.67;11.33;;;;;7.15;100.00;100580.00;5156054;27;43825;-80
2024/04/25 04:00:04;;;;;;;;;15.67;14.00;;;;;7.11;100.00;100573.38;5156025;27;43933;-80
2024/04/25 04:02:30;;;;;;;;;13.00;11.00;;;;;7.16;100.00;100579.00;5155840;27;43937;-80
2024/04/25 04:04:55;;;;;;;;;11.00;10.67;;;;;7.07;100.00;100569.38;5155726;27;43901;-80
2024/04/25 04:07:21;;;;;;;;;9.67;9.67;;;;;7.10;100.00;100576.16;5153959;27;44696;-80
2024/04/25 04:09:47;;;;;;;;;11.67;11.33;;;;;7.11;100.00;100585.75;5155738;27;44059;-80
2024/04/25 04:12:13;;;;;;;;;17.67;15.33;;;;;7.02;100.00;100564.56;5155622;27;43871;-80
2024/04/25 04:14:39;;;;;;;;;9.33;9.33;;;;;7.06;100.00;100573.00;5154024;27;46017;-80
2024/04/25 04:17:04;;;;;;;;;11.00;10.67;;;;;6.99;100.00;100558.75;5155652;27;43646;-80
2024/04/25 04:19:29;;;;;;;;;14.33;13.33;;;;;7.01;100.00;100565.56;5156048;27;43710;-80
2024/04/25 04:21:55;;;;;;;;;15.33;14.33;;;;;7.04;100.00;100572.34;5155667;27;43953;-81
2024/04/25 04:24:20;;;;;;;;;13.67;13.00;;;;;6.93;100.00;100561.03;5153502;27;45592;-81
2024/04/25 04:26:45;;;;;;;;;12.00;12.00;;;;;6.94;100.00;100565.34;5153751;27;43931;-81
2024/04/25 04:29:11;;;;;;;;;15.00;13.00;;;;;6.95;100.00;100571.47;5152694;27;44561;-80
2024/04/25 04:31:36;;;;;;;;;13.00;12.00;;;;;6.92;100.00;100566.47;5153332;27;53092;-80
2024/04/25 04:34:01;;;;;;;;;13.00;11.33;;;;;6.89;100.00;100562.31;5155191;27;50941;-80
2024/04/25 04:36:32;;;;;;;;;15.67;15.33;;;;;6.88;100.00;100563.31;5155672;27;44037;-80
2024/04/25 04:38:57;;;;;;;;;13.67;13.67;;;;;6.90;100.00;100565.78;5155127;27;43979;-80
2024/04/25 04:41:22;;;;;;;;;16.67;16.00;;;;;6.91;100.00;100565.63;5153475;27;46090;-80
2024/04/25 04:43:50;;;;;;;;;12.67;11.00;;;;;6.91;100.00;100564.81;5155578;27;44071;-80
2024/04/25 04:46:15;;;;;;;;;12.67;12.00;;;;;6.88;100.00;100559.84;5180476;27;44878;-80
2024/04/25 04:48:45;;;;;;;;;13.67;13.00;;;;;6.90;100.00;100557.88;5155425;27;43879;-80
2024/04/25 04:51:11;;;;;;;;;17.00;14.33;;;;;6.90;100.00;100561.34;5155250;27;44337;-80
2024/04/25 04:53:36;;;;;;;;;7.33;6.00;;;;;6.94;100.00;100565.34;5122500;27;44033;-80
2024/04/25 04:56:01;;;;;;;;;17.67;17.33;;;;;6.93;100.00;100566.34;5122675;27;43934;-80
2024/04/25 04:58:27;;;;;;;;;14.00;13.00;;;;;6.92;100.00;100561.19;5148191;27;44199;-80
2024/04/25 05:00:52;;;;;;;;;13.33;13.33;;;;;6.97;100.00;100566.03;5122689;27;43919;-80
2024/04/25 05:03:17;;;;;;;;;13.00;11.00;;;;;6.94;100.00;100567.13;5122691;27;45200;-81
2024/04/25 05:05:42;;;;;;;;;12.33;12.33;;;;;6.99;100.00;100567.53;5120463;27;43898;-80
2024/04/25 05:08:08;;;;;;;;;11.33;11.33;;;;;6.95;100.00;100559.06;5147935;27;43848;-81
2024/04/25 05:10:33;;;;;;;;;13.00;13.00;;;;;7.02;100.00;100566.38;5122915;27;43822;-80
2024/04/25 05:12:58;;;;;;;;;18.00;14.00;;;;;7.03;100.00;100568.84;5122435;27;44935;-80
2024/04/25 05:15:24;;;;;;;;;17.00;12.33;;;;;7.07;100.00;100566.75;5121815;27;43889;-81
2024/04/25 05:17:49;;;;;;;;;15.00;12.00;;;;;7.06;100.00;100563.25;5122527;27;43726;-80
2024/04/25 05:20:14;;;;;;;;;14.00;14.00;;;;;7.09;100.00;100563.94;5138072;27;50139;-80
2024/04/25 05:22:40;;;;;;;;;18.00;14.00;;;;;7.09;100.00;100570.03;5153695;27;44008;-80
2024/04/25 05:25:06;;;;;;;;;15.33;13.67;;;;;7.10;100.00;100558.50;5153317;27;43868;-80
2024/04/25 05:27:33;;;;;;;;;13.00;13.00;;;;;7.15;100.00;100560.69;5152290;27;44235;-79
2024/04/25 05:29:59;;;;;;;;;15.33;13.67;;;;;7.16;100.00;100549.94;5152723;27;45796;-80
2024/04/25 05:32:24;;;;;;;;;17.67;13.00;;;;;7.23;100.00;100551.94;5154743;27;44032;-81
2024/04/25 05:34:54;;;;;;;;;13.67;12.67;;;;;7.28;100.00;100562.91;5154477;27;47526;-80
2024/04/25 05:37:20;;;;;;;;;12.33;12.33;;;;;7.31;100.00;100557.31;5154622;27;44002;-80
2024/04/25 05:39:45;;;;;;;;;17.00;15.67;;;;;7.34;100.00;100551.69;5179708;27;45060;-80
2024/04/25 05:42:11;;;;;;;;;23.67;21.00;;;;;7.39;100.00;100552.03;5155520;27;47326;-79
2024/04/25 05:44:37;;;;;;;;;18.67;18.00;;;;;7.46;100.00;100554.91;5160032;27;43958;-79
2024/04/25 05:47:02;;;;;;;;;17.00;16.33;;;;;7.40;100.00;100542.31;5170916;27;44455;-80
2024/04/25 05:49:27;;;;;;;;;21.33;20.67;;;;;7.52;100.00;100556.06;5166608;27;47544;-80
2024/04/25 05:51:52;;;;;;;;;19.33;16.00;;;;;7.56;100.00;100560.91;5172849;27;50052;-80
2024/04/25 05:54:18;;;;;;;;;18.67;17.00;;;;;7.57;100.00;100553.78;5171144;27;48559;-79
2024/04/25 05:56:43;;;;;;;;;20.67;16.67;;;;;7.65;100.00;100553.81;5168904;27;43948;-80
2024/04/25 05:59:09;;;;;;;;;24.67;23.00;;;;;7.70;100.00;100545.41;5153773;27;47323;-81
2024/04/25 06:01:34;;;;;;;;;22.33;22.33;;;;;7.82;100.00;100553.88;5153883;27;44962;-79
2024/04/25 06:04:00;;;;;;;;;20.67;16.67;;;;;7.88;100.00;100557.69;5152792;27;43848;-79
2024/04/25 06:06:25;;;;;;;;;20.67;18.67;;;;;7.89;100.00;100554.06;5155148;27;43940;-80
2024/04/25 06:08:51;;;;;;;;;16.00;16.00;;;;;7.94;100.00;100549.94;5156624;27;43841;-79
2024/04/25 06:11:17;;;;;;;;;20.33;18.33;;;;;8.01;100.00;100544.00;5155119;27;45804;-81
2024/04/25 06:13:42;;;;;;;;;20.00;16.00;;;;;8.05;100.00;100551.44;5156640;27;43817;-80
2024/04/25 06:16:08;;;;;;;;;13.33;11.00;;;;;8.10;100.00;100540.38;5156717;27;43951;-80
2024/04/25 06:18:33;;;;;;;;;16.33;15.33;;;;;8.24;100.00;100551.31;5156717;27;43869;-80
2024/04/25 06:20:58;;;;;;;;;16.67;16.67;;;;;8.17;100.00;100533.44;5154397;27;59416;-80
2024/04/25 06:23:24;;;;;;;;;22.33;20.00;;;;;8.25;100.00;100537.91;5159313;27;44270;-80
2024/04/25 06:25:49;;;;;;;;;18.67;15.33;;;;;8.29;100.00;100544.53;5154713;27;43650;-80
2024/04/25 06:28:14;;;;;;;;;27.00;24.33;;;;;8.34;100.00;100539.59;5156465;27;44066;-80
2024/04/25 06:30:39;;;;;;;;;5.00;3.33;;;;;8.34;100.00;100536.09;5156550;27;45085;-79
2024/04/25 06:33:05;;;;;;;;;22.67;19.33;;;;;8.38;100.00;100539.25;5154427;27;49117;-80
2024/04/25 06:35:30;;;;;;;;;17.33;16.33;;;;;8.45;100.00;100545.56;5154662;27;53274;-79
2024/04/25 06:37:56;;;;;;;;;17.00;17.00;;;;;8.38;100.00;100529.47;5156317;27;43949;-80
2024/04/25 06:40:21;;;;;;;;;22.00;18.33;;;;;8.41;100.00;100525.69;5154527;27;49108;-79
2024/04/25 06:42:46;;;;;;;;;19.33;16.67;;;;;8.39;100.00;100517.91;5181476;27;44721;-80
2024/04/25 06:45:13;;;;;;;;;15.00;14.33;;;;;8.45;100.00;100522.53;5156129;27;43737;-80
2024/04/25 06:47:39;;;;;;;;;17.33;17.00;;;;;8.46;100.00;100524.19;5128081;27;46288;-82
2024/04/25 06:50:05;;;;;;;;;18.00;16.00;;;;;8.44;100.00;100528.81;5156304;27;44942;-81
2024/04/25 06:52:30;;;;;;;;;17.33;17.33;;;;;8.40;100.00;100524.03;5153358;27;43900;-82
2024/04/25 06:54:55;;;;;;;;;23.00;19.00;;;;;8.37;100.00;100519.88;5153397;27;49220;-82
2024/04/25 06:57:21;;;;;;;;;22.00;17.00;;;;;8.42;100.00;100527.34;5180411;27;52123;-80
2024/04/25 06:59:48;;;;;;;;;19.67;18.33;;;;;8.43;100.00;100523.69;5156205;27;44867;-80
2024/04/25 07:02:16;;;;;;;;;15.00;15.00;;;;;8.41;100.00;100515.91;5155871;27;43749;-81
2024/04/25 07:04:41;;;;;;;;;20.33;17.33;;;;;8.37;100.00;100517.25;5156492;27;43894;-81
2024/04/25 07:07:07;;;;;;;;;19.33;17.33;;;;;8.33;100.00;100506.13;5156312;27;49996;-81
2024/04/25 07:09:32;;;;;;;;;16.67;16.00;;;;;8.39;100.00;100501.19;5154310;27;45816;-81
2024/04/25 07:11:58;;;;;;;;;23.67;19.33;;;;;8.46;100.00;100508.31;5155271;27;43876;-81
2024/04/25 07:14:23;;;;;;;;;17.67;14.33;;;;;8.45;100.00;100497.88;5154436;27;43912;-83
2024/04/25 07:16:49;;;;;;;;;18.00;16.67;;;;;8.50;100.00;100500.84;5162582;27;43876;-79
2024/04/25 07:21:45;;;;;;;;;17.67;16.00;;;;;8.40;100.00;100468.41;5168766;27;43741;-79
2024/04/25 07:24:11;;;;;;;;;18.67;15.00;;;;;8.64;100.00;100487.94;5171398;27;43841;-79
2024/04/25 07:26:36;;;;;;;;;15.00;14.00;;;;;8.66;100.00;100475.38;5173235;27;45223;-81
2024/04/25 07:29:02;;;;;;;;;13.67;13.33;;;;;8.78;100.00;100484.63;5309475;21;47101;-80
2024/04/25 07:33:58;;;;;;;;;14.67;14.67;;;;;8.71;100.00;100439.41;5584831;21;44933;-81
2024/04/25 07:36:23;;;;;;;;;10.33;10.00;;;;;9.00;100.00;100468.16;5194005;27;45253;-81
2024/04/25 07:38:49;;;;;;;;;14.00;12.33;;;;;9.15;100.00;100479.72;5192886;27;45636;-81
2024/04/25 07:41:14;;;;;;;;;8.33;6.33;;;;;9.30;100.00;100482.47;5195311;27;43848;-81
2024/04/25 07:43:40;;;;;;;;;11.67;9.67;;;;;9.35;100.00;100471.34;5197985;27;43883;-81
2024/04/25 07:46:11;;;;;;;;;7.33;7.33;;;;;9.47;100.00;100479.75;5189942;27;45646;-82
2024/04/25 07:48:37;;;;;;;;;9.67;9.67;;;;;9.47;100.00;100474.44;5190466;27;43993;-82
2024/04/25 07:51:03;;;;;;;;;7.00;7.00;;;;;9.59;100.00;100477.53;5188959;27;43769;-82
2024/04/25 07:53:28;;;;;;;;;5.67;5.00;;;;;9.57;100.00;100476.88;5193342;27;43790;-84
2024/04/25 07:55:53;;;;;;;;;7.67;7.67;;;;;9.66;100.00;100478.50;5195106;27;43874;-82
2024/04/25 07:58:19;;;;;;;;;6.00;5.00;;;;;9.69;100.00;100464.88;5190675;27;44177;-83
2024/04/25 08:00:45;;;;;;;;;7.33;6.00;;;;;9.76;100.00;100462.34;5192232;27;43798;-82
2024/04/25 08:03:11;;;;;;;;;10.00;7.00;;;;;9.79;100.00;100453.22;5191426;27;43726;-83
2024/04/25 08:05:36;;;;;;;;;5.67;5.67;;;;;9.97;100.00;100464.34;5187980;27;45815;-82
2024/04/25 08:08:02;;;;;;;;;5.33;5.00;;;;;10.08;100.00;100468.44;5191783;27;45932;-84
2024/04/25 08:10:27;;;;;;;;;6.67;6.67;;;;;10.08;100.00;100446.34;5200740;27;43907;-81
2024/04/25 08:12:53;;;;;;;;;5.67;5.67;;;;;10.25;100.00;100457.69;5198361;27;43254;-79
2024/04/25 08:15:18;;;;;;;;;5.00;4.00;;;;;10.31;100.00;100451.66;5191719;27;44018;-80
2024/04/25 08:17:48;;;;;;;;;5.67;4.00;;;;;10.34;100.00;100445.16;5194853;27;46829;-82
2024/04/25 08:20:14;;;;;;;;;4.00;3.00;;;;;10.50;99.57;100459.34;5196134;27;44446;-82
2024/04/25 08:22:39;;;;;;;;;4.00;3.67;;;;;10.51;97.73;100445.03;5197812;27;43182;-81
2024/04/25 08:25:05;;;;;;;;;3.67;3.67;;;;;10.60;94.95;100451.94;5193387;27;51534;-81
2024/04/25 08:27:30;;;;;;;;;3.00;3.00;;;;;10.64;95.59;100449.72;5192451;27;45720;-83
2024/04/25 08:29:55;;;;;;;;;4.33;4.33;;;;;10.71;96.69;100445.31;5192719;27;47598;-82
2024/04/25 08:32:21;;;;;;;;;6.33;6.33;;;;;10.74;95.30;100444.94;5190212;27;43885;-82
2024/04/25 08:34:46;;;;;;;;;5.00;5.00;;;;;10.86;95.46;100450.63;5187162;27;44235;-82
2024/04/25 08:37:11;;;;;;;;;5.00;5.00;;;;;10.95;93.31;100449.53;5188330;27;43828;-82
2024/04/25 08:39:36;;;;;;;;;4.67;4.67;;;;;10.97;93.08;100442.22;5164303;27;49812;-82
2024/04/25 08:42:05;;;;;;;;;5.00;5.00;;;;;11.06;93.10;100442.09;5155588;27;51095;-82
2024/04/25 08:44:31;;;;;;;;;6.00;6.00;;;;;11.17;92.22;100438.16;5153956;27;45332;-82
2024/04/25 08:46:58;;;;;;;;;9.00;6.00;;;;;11.18;82.70;100445.97;5155985;27;44412;-82
2024/04/25 08:49:24;;;;;;;;;6.00;6.00;;;;;11.17;83.05;100444.31;5157932;27;43643;-82
2024/04/25 08:51:51;;;;;;;;;6.67;6.67;;;;;11.23;85.33;100445.41;5155804;27;44139;-81
2024/04/25 08:54:21;;;;;;;;;6.67;6.00;;;;;11.34;86.21;100433.44;5157569;27;44009;-82
2024/04/25 08:56:47;;;;;;;;;7.00;7.00;;;;;11.42;87.38;100425.38;5156614;27;44964;-81
2024/04/25 08:59:12;;;;;;;;;5.67;5.67;;;;;11.61;87.62;100426.59;5159465;27;43769;-82
2024/04/25 09:01:40;;;;;;;;;6.33;6.00;;;;;11.76;84.59;100438.22;5159284;27;43825;-80
2024/04/25 09:04:14;;;;;;;;;4.33;4.33;;;;;11.81;83.62;100415.31;5163491;27;44660;-80
2024/04/25 09:06:39;;;;;;;;;5.67;5.67;;;;;11.98;79.17;100428.38;5159892;27;46214;-85
2024/04/25 09:09:06;;;;;;;;;4.67;4.67;;;;;11.89;76.96;100403.72;5158057;27;43908;-82
2024/04/25 09:11:31;;;;;;;;;8.67;8.00;;;;;12.09;72.69;100409.22;5160650;27;43750;-82
2024/04/25 09:13:57;;;;;;;;;6.00;6.00;;;;;12.16;71.81;100406.63;5160332;27;45957;-83
2024/04/25 09:16:24;;;;;;;;;5.00;5.00;;;;;12.14;66.91;100397.16;5159200;27;44107;-84
2024/04/25 09:18:50;;;;;;;;;6.00;4.00;;;;;12.08;66.83;100396.94;5192376;27;43880;-83
2024/04/25 09:21:16;;;;;;;;;4.00;4.00;;;;;12.09;68.90;100385.25;5199090;27;43179;-83
2024/04/25 09:23:42;;;;;;;;;4.33;3.67;;;;;12.30;71.01;100394.22;5197969;27;44634;-84
2024/04/25 09:26:12;;;;;;;;;6.00;5.67;;;;;12.36;71.93;100403.28;5193823;27;43927;-84
2024/04/25 09:28:39;;;;;;;;;7.67;7.67;;;;;12.30;69.30;100390.75;5193048;27;44096;-84
2024/04/25 09:31:04;;;;;;;;;5.00;5.00;;;;;12.33;66.48;100385.03;5191316;27;43914;-78
2024/04/25 09:33:30;;;;;;;;;5.00;4.67;;;;;12.41;69.97;100392.03;5186695;27;46065;-82
2024/04/25 09:35:57;;;;;;;;;4.00;4.00;;;;;12.49;70.13;100398.03;5188008;27;43947;-82
2024/04/25 09:38:22;;;;;;;;;4.33;4.33;;;;;12.42;64.10;100383.84;5186876;27;44059;-84
2024/04/25 09:40:50;;;;;;;;;5.00;5.00;;;;;12.35;66.30;100388.31;5186022;27;43948;-84
2024/04/25 09:43:16;;;;;;;;;7.67;6.33;;;;;12.36;66.85;100384.63;5187595;27;43638;-83
2024/04/25 09:45:43;;;;;;;;;7.00;7.00;;;;;12.41;66.03;100379.53;5186712;27;43845;-85
2024/04/25 09:48:14;;;;;;;;;5.00;4.00;;;;;12.48;66.01;100368.94;5188038;27;43836;-85
2024/04/25 09:50:45;;;;;;;;;6.00;6.00;;;;;12.60;66.58;100371.88;5187827;27;44034;-84
2024/04/25 09:53:17;;;;;;;;;4.67;4.67;;;;;12.69;65.21;100357.34;5185851;27;45124;-81
2024/04/25 09:55:44;;;;;;;;;8.00;7.33;;;;;12.84;62.96;100354.53;5186494;27;43947;-82
2024/04/25 09:58:37;;;;;;;;;4.33;4.33;;;;;13.03;64.36;100356.66;5184463;27;43908;-81
2024/04/25 10:01:05;;;;;;;;;5.67;5.67;;;;;13.19;63.64;100350.97;5181914;27;43978;-82
2024/04/25 10:03:31;;;;;;;;;7.00;7.00;;;;;13.32;63.88;100358.16;5186549;27;44058;-83
2024/04/25 10:05:58;;;;;;;;;7.33;7.33;;;;;13.30;64.02;100354.91;5185119;27;46631;-82
2024/04/25 10:08:41;;;;;;;;;6.67;5.00;;;;;13.18;61.66;100346.66;5186361;27;43820;-82
2024/04/25 10:11:07;;;;;;;;;7.67;4.67;;;;;13.17;62.53;100354.88;5186227;27;43868;-82
2024/04/25 10:13:33;;;;;;;;;5.67;5.33;;;;;13.18;63.86;100346.66;5186688;27;43833;-82
2024/04/25 10:15:58;;;;;;;;;5.33;4.00;;;;;13.32;60.04;100344.03;5186446;27;44737;-82
2024/04/25 10:18:24;;;;;;;;;4.67;4.67;;;;;13.53;64.60;100343.03;5186678;27;43835;-83
2024/04/25 10:21:02;;;;;;;;;4.00;4.00;;;;;13.87;59.93;100335.88;5186621;27;43653;-80
2024/04/25 10:23:34;;;;;;;;;4.33;4.33;;;;;14.07;60.70;100335.03;5184098;27;44825;-79
2024/04/25 10:25:59;;;;;;;;;3.67;3.67;;;;;14.36;63.67;100334.78;5186010;27;43997;-81
2024/04/25 10:28:28;;;;;;;;;5.33;4.00;;;;;14.58;60.90;100327.31;5187917;27;43716;-82
2024/04/25 10:30:58;;;;;;;;;5.00;5.00;;;;;14.84;59.56;100332.78;5189410;27;43777;-81
2024/04/25 10:33:24;;;;;;;;;8.00;5.33;;;;;14.89;54.95;100316.94;5189079;27;43896;-82
2024/04/25 10:35:53;;;;;;;;;7.33;5.00;;;;;14.98;57.02;100323.69;5189357;27;44415;-80
2024/04/25 10:38:22;;;;;;;;;6.67;6.67;;;;;15.10;56.60;100317.63;5186952;27;44063;-82
2024/04/25 10:40:47;;;;;;;;;4.67;4.67;;;;;15.36;54.99;100319.31;5189960;27;44094;-82
2024/04/25 10:43:12;;;;;;;;;2.67;2.67;;;;;15.39;54.34;100307.38;5189567;27;44017;-83
2024/04/25 10:45:38;;;;;;;;;4.33;4.00;;;;;15.41;53.59;100302.59;5189121;27;43980;-83
2024/04/25 10:48:05;;;;;;;;;4.33;4.33;;;;;15.33;53.06;100294.84;5189391;27;43860;-82
2024/04/25 10:50:30;;;;;;;;;6.00;6.00;;;;;15.29;53.27;100305.16;5189509;27;43958;-81
2024/04/25 10:52:56;;;;;;;;;5.33;4.00;;;;;15.29;53.96;100291.78;5188656;27;43852;-80
2024/04/25 10:55:21;;;;;;;;;26.00;22.67;;;;;15.40;54.43;100290.25;5188786;27;43864;-80
2024/04/25 10:57:47;;;;;;;;;3.00;3.00;;;;;15.60;55.05;100282.09;5187094;27;43839;-81
2024/04/25 11:00:13;;;;;;;;;5.33;5.00;;;;;15.87;54.54;100284.50;5187114;27;43868;-81
2024/04/25 11:02:38;;;;;;;;;7.33;5.33;;;;;16.11;53.34;100273.19;5186444;27;45643;-81
2024/04/25 11:05:04;;;;;;;;;6.00;6.00;;;;;16.34;50.53;100271.72;5188784;27;44484;-81
2024/04/25 11:07:29;;;;;;;;;5.33;5.33;;;;;16.41;50.87;100277.81;5188208;27;43871;-79
2024/04/25 11:09:56;;;;;;;;;5.33;5.33;;;;;16.49;51.08;100282.84;5188691;27;44501;-80
2024/04/25 11:12:22;;;;;;;;;6.00;5.33;;;;;16.56;50.19;100265.84;5188444;27;44139;-81
2024/04/25 11:14:48;;;;;;;;;7.33;7.33;;;;;16.46;48.94;100282.50;5188316;27;44811;-81
2024/04/25 11:17:14;;;;;;;;;7.67;6.67;;;;;16.26;48.34;100278.19;5187207;27;43856;-82
2024/04/25 11:19:43;;;;;;;;;7.00;5.00;;;;;16.07;47.94;100274.69;5186799;27;43951;-82